PAOH Airport Information

Runway Information
Runway 06 Length 2997 ft width 75 ft
Elevation 15 ft Threshold 0 ft Heading 78
Runway 24 Length 2997 ft Width 75 ft
Elevation 19 ft Threshold 0 ft Heading 258
Airport Frequencies
Airport Navaids
Type VORTAC Name Sisters Island Frequency 114000 KHZ
Airport Weather Information & NOTAM
ADDS - METARS form results

(2053 UTC 16 April 2021)
Data provider http://aviationweather.gov/metar/data/
 
METAR text: PAOH 161956Z AUTO 00000KT 10SM CLR 12/05 A3036 RMK AO2 SLP281 T01170050
Conditions at: PAOH (HOONAH , AK, US) observed 1956 UTC 16 April 2021
Temperature: 11.7°C (53°F)
Dewpoint: 5.0°C (41°F) [RH = 63%]
Pressure (altimeter): 30.36 inches Hg (1028.2 mb)
[Sea-level pressure: 1028.1 mb]
Winds: calm
Visibility: 10 or more miles (16+ km)
Ceiling: at least 12,000 feet AGL
Clouds: sky clear below 12,000 feet AGL
Weather: automated observation with no human augmentation;
there may or may not be significant weather present at this time